Time;durP1;ratioP1;P1;durP2;ratioP2;P2;SDS_P1;SDS_P2;PMS_P1;PMS_P2;Temp;Humidity;BMP_temperature;BMP_pressure;BME280_temperature;BME280_humidity;BME280_pressure;Samples;Min_cycle;Max_cycle;Signal;HPM_P1;HPM_P2
2022/01/29 00:00:23;;;;;;;38.90;28.00;;;7.00;99.90;;;;;;5030050;28;20045;-74
2022/01/29 00:02:49;;;;;;;42.10;27.92;;;7.00;99.90;;;;;;5029368;28;20128;-74
2022/01/29 00:05:14;;;;;;;42.35;27.88;;;6.90;99.90;;;;;;5012539;28;20045;-74
2022/01/29 00:07:42;;;;;;;46.30;30.15;;;6.90;99.90;;;;;;5029199;28;20052;-73
2022/01/29 00:10:09;;;;;;;40.75;30.50;;;6.90;99.90;;;;;;5029385;28;20516;-72
2022/01/29 00:12:34;;;;;;;49.70;29.45;;;6.90;99.90;;;;;;5029196;28;20055;-73
2022/01/29 00:15:00;;;;;;;42.92;29.73;;;6.90;99.90;;;;;;5012173;28;20120;-73
2022/01/29 00:17:26;;;;;;;47.53;31.27;;;6.90;99.90;;;;;;5030055;28;20045;-73
2022/01/29 00:19:52;;;;;;;45.67;31.42;;;6.90;99.90;;;;;;5028220;28;20061;-73
2022/01/29 00:22:17;;;;;;;43.30;31.15;;;6.90;99.90;;;;;;5029957;28;20049;-73
2022/01/29 00:24:43;;;;;;;48.55;31.13;;;6.90;99.90;;;;;;5012105;28;20052;-73
2022/01/29 00:27:10;;;;;;;40.63;29.33;;;6.90;99.90;;;;;;5028992;28;20053;-73
2022/01/29 00:29:39;;;;;;;42.33;31.38;;;6.90;99.90;;;;;;5028951;28;20057;-73
2022/01/29 00:32:06;;;;;;;47.67;32.28;;;6.90;99.90;;;;;;5028864;28;20529;-74
2022/01/29 00:34:31;;;;;;;49.70;30.90;;;6.90;99.90;;;;;;5029173;28;20042;-73
2022/01/29 00:36:57;;;;;;;46.95;33.03;;;6.80;99.90;;;;;;5012424;28;20048;-73
2022/01/29 00:39:23;;;;;;;48.28;32.38;;;6.90;99.90;;;;;;5028636;28;20383;-73
2022/01/29 00:41:49;;;;;;;46.47;31.35;;;6.90;99.90;;;;;;5045457;28;20075;-74
2022/01/29 00:44:14;;;;;;;45.00;31.48;;;6.90;99.90;;;;;;5037746;28;20135;-73
2022/01/29 00:46:41;;;;;;;44.85;31.35;;;6.90;99.90;;;;;;5028247;28;20466;-73
2022/01/29 00:49:08;;;;;;;45.78;31.08;;;6.80;99.90;;;;;;5028516;28;20068;-73
2022/01/29 00:51:34;;;;;;;49.08;33.33;;;6.90;99.90;;;;;;5029701;28;20041;-73
2022/01/29 00:54:00;;;;;;;49.67;32.47;;;6.80;99.90;;;;;;5027957;28;20037;-73
2022/01/29 00:56:26;;;;;;;42.28;30.48;;;6.90;99.90;;;;;;5029597;28;20429;-73
2022/01/29 00:58:51;;;;;;;47.17;33.00;;;6.80;99.90;;;;;;5028695;28;20076;-73
2022/01/29 01:01:17;;;;;;;42.70;30.80;;;6.90;99.90;;;;;;5028682;28;20083;-73
2022/01/29 01:03:43;;;;;;;44.42;31.85;;;6.90;99.90;;;;;;5012463;28;20033;-73
2022/01/29 01:06:08;;;;;;;40.15;28.65;;;6.90;99.90;;;;;;5028723;28;20053;-73
2022/01/29 01:08:35;;;;;;;42.90;29.52;;;6.90;99.90;;;;;;5028581;28;20049;-74
2022/01/29 01:11:02;;;;;;;50.65;31.65;;;6.90;99.90;;;;;;5028750;28;20494;-73
2022/01/29 01:13:28;;;;;;;44.60;31.25;;;6.90;99.90;;;;;;5028464;28;20056;-73
2022/01/29 01:15:54;;;;;;;46.42;32.30;;;6.90;99.90;;;;;;5028008;28;20079;-73
2022/01/29 01:18:19;;;;;;;39.80;30.60;;;6.90;99.90;;;;;;5028708;28;20118;-73
2022/01/29 01:20:45;;;;;;;40.78;30.33;;;6.90;99.90;;;;;;5028804;28;20041;-73
2022/01/29 01:23:11;;;;;;;46.22;30.27;;;6.90;99.90;;;;;;5028061;28;20120;-72
2022/01/29 01:25:36;;;;;;;43.58;29.35;;;6.90;99.90;;;;;;5012260;28;20045;-73
2022/01/29 01:28:02;;;;;;;47.75;31.08;;;6.90;99.90;;;;;;5027720;28;20474;-73
2022/01/29 01:30:28;;;;;;;45.17;31.48;;;6.90;99.90;;;;;;5028915;28;20064;-73
2022/01/29 01:32:54;;;;;;;51.90;31.15;;;6.90;99.90;;;;;;5027985;28;20045;-73
2022/01/29 01:35:25;;;;;;;49.30;30.63;;;6.90;99.90;;;;;;5028277;28;20068;-72
2022/01/29 01:37:56;;;;;;;52.17;33.33;;;6.90;99.90;;;;;;5011708;28;20049;-73
2022/01/29 01:40:23;;;;;;;42.70;30.15;;;6.90;99.90;;;;;;5029033;28;20053;-73
2022/01/29 01:42:49;;;;;;;40.20;30.58;;;6.90;99.90;;;;;;5027635;28;20049;-73
2022/01/29 01:45:15;;;;;;;44.13;31.60;;;6.90;99.90;;;;;;5028825;28;20038;-73
2022/01/29 01:47:40;;;;;;;48.47;30.13;;;7.00;99.90;;;;;;5028309;28;20382;-73
2022/01/29 01:50:08;;;;;;;43.85;30.85;;;6.90;99.90;;;;;;5027908;28;20034;-74
2022/01/29 01:52:33;;;;;;;42.38;30.27;;;6.90;99.90;;;;;;5028394;28;20540;-74
2022/01/29 01:54:59;;;;;;;44.00;31.42;;;6.90;99.90;;;;;;5028035;28;20069;-73
2022/01/29 01:57:25;;;;;;;49.65;30.38;;;7.00;99.90;;;;;;5012437;28;20073;-73
2022/01/29 01:59:51;;;;;;;48.05;31.63;;;7.00;99.90;;;;;;5015253;28;20080;-74
2022/01/29 02:02:16;;;;;;;44.72;30.52;;;6.90;99.90;;;;;;5032241;28;20052;-73
2022/01/29 02:04:42;;;;;;;41.38;30.38;;;7.00;99.90;;;;;;5017282;28;20037;-73
2022/01/29 02:07:08;;;;;;;46.83;30.80;;;7.00;99.90;;;;;;5032512;28;20055;-72
2022/01/29 02:09:34;;;;;;;45.95;31.77;;;7.00;99.90;;;;;;5031839;28;20124;-73
2022/01/29 02:12:03;;;;;;;44.67;30.63;;;7.00;99.90;;;;;;5031034;28;20065;-74
2022/01/29 02:14:31;;;;;;;49.70;30.95;;;7.00;99.90;;;;;;5015671;28;20052;-73
2022/01/29 02:16:58;;;;;;;49.92;30.63;;;7.00;99.90;;;;;;5031589;28;20045;-73
2022/01/29 02:19:24;;;;;;;46.35;30.75;;;7.00;99.90;;;;;;5031129;28;20114;-72
2022/01/29 02:21:50;;;;;;;41.00;30.75;;;7.10;99.90;;;;;;5031426;28;20129;-72
2022/01/29 02:24:16;;;;;;;45.92;30.13;;;7.10;99.90;;;;;;5014240;28;20124;-72
2022/01/29 02:26:42;;;;;;;43.45;28.02;;;7.10;99.90;;;;;;5031947;28;20393;-72
2022/01/29 02:29:08;;;;;;;39.55;26.60;;;7.10;99.90;;;;;;5030923;28;20053;-72
2022/01/29 02:31:33;;;;;;;42.72;29.20;;;7.10;99.90;;;;;;5031417;28;20045;-72
2022/01/29 02:33:59;;;;;;;46.90;27.70;;;7.10;99.90;;;;;;5030721;28;20121;-72
2022/01/29 02:36:25;;;;;;;40.45;25.40;;;7.20;99.90;;;;;;5031649;28;20494;-72
2022/01/29 02:38:51;;;;;;;40.33;26.20;;;7.20;99.90;;;;;;5029602;28;20033;-72
2022/01/29 02:41:17;;;;;;;42.50;23.90;;;7.20;99.90;;;;;;5049239;28;20097;-72
2022/01/29 02:43:46;;;;;;;44.70;24.50;;;7.30;99.90;;;;;;5021857;28;20045;-72
2022/01/29 02:48:42;;;;;;;37.42;23.02;;;7.30;99.90;;;;;;5030899;28;20508;-72
2022/01/29 02:51:08;;;;;;;37.10;21.67;;;7.40;99.90;;;;;;5014777;28;20670;-73
2022/01/29 02:53:34;;;;;;;35.05;20.02;;;7.40;99.90;;;;;;5013952;28;20086;-73
2022/01/29 02:55:59;;;;;;;32.95;19.23;;;7.50;99.90;;;;;;5032065;28;20045;-72
2022/01/29 02:58:25;;;;;;;35.38;20.75;;;7.50;99.90;;;;;;5030856;28;20045;-72
2022/01/29 03:00:51;;;;;;;37.08;20.40;;;7.60;99.90;;;;;;5029869;28;20045;-72
2022/01/29 03:03:17;;;;;;;30.08;18.60;;;7.60;99.90;;;;;;5015884;28;20405;-72
2022/01/29 03:05:42;;;;;;;27.38;18.92;;;7.60;99.90;;;;;;5030843;28;20125;-72
2022/01/29 03:08:08;;;;;;;32.03;19.55;;;7.70;99.90;;;;;;5013682;28;20081;-75
2022/01/29 03:10:34;;;;;;;34.60;20.40;;;7.80;99.90;;;;;;5031587;28;20042;-72
2022/01/29 03:13:00;;;;;;;30.50;19.17;;;7.80;99.90;;;;;;5030466;28;20049;-73
2022/01/29 03:15:26;;;;;;;35.00;19.23;;;7.80;99.90;;;;;;5030558;28;20048;-72
2022/01/29 03:17:51;;;;;;;29.50;19.73;;;7.80;99.90;;;;;;5030215;28;20042;-73
2022/01/29 03:20:17;;;;;;;30.60;18.75;;;7.80;99.90;;;;;;5030922;28;20064;-72
2022/01/29 03:22:42;;;;;;;29.40;18.92;;;7.90;99.90;;;;;;5029612;28;20079;-75
2022/01/29 03:25:08;;;;;;;31.67;19.83;;;7.90;99.90;;;;;;5030156;28;20049;-72
2022/01/29 03:27:34;;;;;;;27.77;19.92;;;8.00;99.90;;;;;;5013176;28;20405;-73
2022/01/29 03:30:00;;;;;;;32.75;21.83;;;8.00;99.90;;;;;;5030393;28;20046;-73
2022/01/29 03:32:26;;;;;;;32.75;20.98;;;8.10;99.90;;;;;;5030290;28;20053;-73
2022/01/29 03:34:51;;;;;;;29.77;19.08;;;8.10;99.90;;;;;;5030427;28;20052;-73
2022/01/29 03:37:17;;;;;;;32.85;19.83;;;8.10;99.90;;;;;;5030025;28;20482;-73
2022/01/29 03:39:44;;;;;;;38.03;21.30;;;8.10;99.90;;;;;;5030743;28;20058;-77
2022/01/29 03:42:12;;;;;;;36.90;21.25;;;8.10;99.90;;;;;;5029389;28;20612;-73
2022/01/29 03:44:38;;;;;;;33.58;21.77;;;8.10;99.90;;;;;;5030349;28;20052;-73
2022/01/29 03:47:03;;;;;;;35.85;22.27;;;8.10;99.90;;;;;;5029457;28;20053;-73
2022/01/29 03:49:29;;;;;;;36.13;22.30;;;8.10;99.90;;;;;;5029699;28;20045;-74
2022/01/29 03:51:55;;;;;;;35.00;21.13;;;8.10;99.90;;;;;;5030215;28;20053;-78
2022/01/29 03:54:20;;;;;;;33.10;21.02;;;8.10;99.90;;;;;;5031908;28;20045;-73
2022/01/29 03:56:46;;;;;;;37.50;22.77;;;8.20;99.90;;;;;;5011807;28;20048;-74
2022/01/29 03:59:12;;;;;;;33.60;20.98;;;8.10;99.90;;;;;;5029936;28;20041;-74
2022/01/29 04:01:37;;;;;;;33.42;20.30;;;8.10;99.90;;;;;;5014474;28;20451;-75
2022/01/29 04:04:03;;;;;;;32.40;20.15;;;8.10;99.90;;;;;;5028922;28;20064;-73
2022/01/29 04:06:30;;;;;;;37.95;20.98;;;8.10;99.90;;;;;;5012917;28;20053;-74
2022/01/29 04:08:56;;;;;;;34.05;21.05;;;8.10;99.90;;;;;;5030410;28;20116;-74
2022/01/29 04:11:22;;;;;;;34.10;21.38;;;8.10;99.90;;;;;;5029210;28;20124;-73
2022/01/29 04:13:48;;;;;;;36.08;20.52;;;8.10;99.90;;;;;;5028747;28;20920;-73
2022/01/29 04:16:16;;;;;;;34.42;20.77;;;8.10;99.90;;;;;;5030227;28;20056;-72
2022/01/29 04:18:42;;;;;;;34.17;20.15;;;8.10;99.90;;;;;;5029787;28;20568;-73
2022/01/29 04:21:08;;;;;;;32.03;19.08;;;8.10;99.90;;;;;;5029184;28;20057;-73
2022/01/29 04:23:34;;;;;;;30.75;18.95;;;8.10;99.90;;;;;;5029765;28;20065;-72
2022/01/29 04:26:01;;;;;;;34.00;19.95;;;8.00;99.90;;;;;;5028247;28;20121;-72
2022/01/29 04:28:31;;;;;;;31.83;20.85;;;8.10;99.90;;;;;;5029386;28;20061;-72
2022/01/29 04:31:06;;;;;;;28.83;18.75;;;8.10;99.90;;;;;;5011633;28;20045;-72
2022/01/29 04:33:31;;;;;;;25.48;18.73;;;8.10;99.90;;;;;;5013571;28;20090;-72
2022/01/29 04:36:00;;;;;;;26.80;17.70;;;8.10;99.90;;;;;;5028540;28;20120;-75
2022/01/29 04:38:27;;;;;;;32.00;18.90;;;8.10;99.90;;;;;;5028860;28;20033;-72
2022/01/29 04:40:54;;;;;;;35.20;19.42;;;8.20;99.90;;;;;;5028390;28;20132;-73
2022/01/29 04:43:20;;;;;;;29.35;17.77;;;8.10;99.90;;;;;;5013279;28;20397;-74
2022/01/29 04:45:45;;;;;;;28.80;18.95;;;8.20;99.90;;;;;;5011612;28;20041;-73
2022/01/29 04:48:11;;;;;;;31.95;19.13;;;8.20;99.90;;;;;;5029589;28;20124;-72
2022/01/29 04:50:37;;;;;;;33.08;19.45;;;8.20;99.90;;;;;;5029352;28;20513;-73
2022/01/29 04:53:04;;;;;;;32.78;17.92;;;8.20;99.90;;;;;;5027882;28;20111;-72
2022/01/29 04:55:30;;;;;;;27.45;19.45;;;8.20;99.90;;;;;;5029310;28;20562;-72
2022/01/29 04:57:55;;;;;;;24.90;17.73;;;8.30;99.90;;;;;;5028836;28;20124;-71
2022/01/29 05:00:21;;;;;;;28.88;18.42;;;8.20;99.90;;;;;;5012134;28;20076;-71
2022/01/29 05:02:48;;;;;;;28.13;18.75;;;8.30;99.90;;;;;;5029442;28;20405;-72
2022/01/29 05:05:14;;;;;;;29.60;17.85;;;8.30;99.90;;;;;;5029383;28;20041;-72
2022/01/29 05:07:40;;;;;;;28.02;16.58;;;8.30;99.90;;;;;;5028714;28;20568;-72
2022/01/29 05:10:06;;;;;;;28.33;17.63;;;8.30;99.90;;;;;;5028740;28;20494;-72
2022/01/29 05:12:55;;;;;;;24.73;17.38;;;8.30;99.90;;;;;;5029351;28;20516;-72
2022/01/29 05:15:30;;;;;;;25.73;17.30;;;8.30;99.90;;;;;;5028940;28;20049;-72
2022/01/29 05:29:10;;;;;;;26.17;17.75;;;8.40;99.90;;;;;;5022983;28;20050;-72
2022/01/29 05:31:38;;;;;;;23.25;17.52;;;8.40;99.90;;;;;;5029160;28;20106;-73
2022/01/29 05:34:04;;;;;;;26.00;17.08;;;8.40;99.90;;;;;;5031137;28;20124;-72
2022/01/29 05:36:29;;;;;;;23.40;16.38;;;8.40;99.90;;;;;;5032951;28;20140;-72
2022/01/29 05:38:55;;;;;;;28.55;17.02;;;8.40;99.90;;;;;;5031995;28;20049;-72
2022/01/29 05:41:21;;;;;;;26.20;16.05;;;8.50;99.90;;;;;;5032297;28;20053;-73
2022/01/29 05:43:47;;;;;;;22.83;15.32;;;8.50;99.90;;;;;;5031999;28;20056;-73
2022/01/29 05:46:14;;;;;;;25.13;15.25;;;8.50;99.90;;;;;;5032587;28;20054;-74
2022/01/29 05:48:40;;;;;;;27.90;15.48;;;8.50;99.90;;;;;;5031453;28;20125;-73
2022/01/29 05:51:06;;;;;;;21.13;15.73;;;8.50;99.90;;;;;;5032220;28;20053;-74
2022/01/29 05:53:32;;;;;;;22.15;15.05;;;8.40;99.90;;;;;;5016226;28;20044;-73
2022/01/29 05:55:58;;;;;;;17.33;13.98;;;8.40;99.90;;;;;;5030915;28;20049;-73
2022/01/29 05:58:24;;;;;;;21.10;14.02;;;8.40;99.90;;;;;;5015647;28;20048;-75
2022/01/29 06:00:49;;;;;;;25.20;13.95;;;8.50;99.90;;;;;;5031279;28;20045;-73
2022/01/29 06:03:15;;;;;;;24.23;14.27;;;8.40;99.90;;;;;;5031637;28;20140;-74
2022/01/29 06:05:40;;;;;;;24.30;14.30;;;8.50;99.90;;;;;;5015349;28;20045;-74
2022/01/29 06:08:06;;;;;;;18.60;11.98;;;8.50;99.90;;;;;;5031408;28;20049;-74
2022/01/29 06:10:32;;;;;;;18.80;12.40;;;8.50;99.90;;;;;;5031466;28;20037;-73
2022/01/29 06:13:04;;;;;;;17.38;12.05;;;8.40;99.90;;;;;;5031737;28;20045;-73
2022/01/29 06:15:34;;;;;;;20.77;12.63;;;8.40;99.90;;;;;;5031752;28;20485;-73
2022/01/29 06:18:00;;;;;;;18.10;12.10;;;8.40;99.90;;;;;;5030971;28;20092;-73
2022/01/29 06:20:26;;;;;;;25.02;12.07;;;8.50;99.90;;;;;;5015298;28;20069;-74
2022/01/29 06:22:52;;;;;;;18.13;11.40;;;8.50;99.90;;;;;;5030907;28;20548;-83
2022/01/29 06:25:18;;;;;;;18.17;10.27;;;8.50;99.90;;;;;;5031133;28;20057;-73
2022/01/29 06:27:45;;;;;;;20.17;10.48;;;8.50;99.90;;;;;;5031498;28;20053;-71
2022/01/29 06:30:11;;;;;;;19.38;10.60;;;8.50;99.90;;;;;;5031396;28;20486;-72
2022/01/29 06:32:37;;;;;;;14.93;10.68;;;8.60;99.90;;;;;;5037976;28;20096;-72
2022/01/29 06:35:03;;;;;;;19.45;9.63;;;8.60;99.90;;;;;;5014721;28;20042;-75
2022/01/29 06:37:29;;;;;;;13.20;9.60;;;8.60;99.90;;;;;;5014219;28;20061;-72
2022/01/29 06:39:54;;;;;;;16.65;9.10;;;8.70;99.90;;;;;;5031103;28;20068;-71
2022/01/29 06:42:20;;;;;;;15.90;9.50;;;8.70;99.90;;;;;;5014599;28;20080;-71
2022/01/29 06:44:45;;;;;;;13.95;8.88;;;8.80;99.90;;;;;;5030083;28;20049;-72
2022/01/29 06:47:11;;;;;;;14.02;8.70;;;8.80;99.90;;;;;;5031120;28;20068;-71
2022/01/29 06:49:37;;;;;;;14.88;9.20;;;8.80;99.90;;;;;;5031241;28;20042;-71
2022/01/29 06:52:02;;;;;;;15.93;8.63;;;8.90;99.90;;;;;;5030133;28;20402;-75
2022/01/29 06:54:28;;;;;;;14.27;8.50;;;8.90;99.90;;;;;;5031862;28;20117;-71
2022/01/29 06:56:55;;;;;;;13.27;8.27;;;8.90;99.90;;;;;;5030026;28;20611;-71
2022/01/29 06:59:20;;;;;;;16.23;8.50;;;8.90;99.90;;;;;;5031128;28;20549;-72
2022/01/29 07:01:46;;;;;;;13.13;8.45;;;8.90;99.90;;;;;;5036656;28;20140;-72
2022/01/29 07:04:11;;;;;;;12.88;7.75;;;8.90;99.90;;;;;;5031429;28;20054;-79
2022/01/29 07:06:38;;;;;;;14.38;8.68;;;8.90;99.90;;;;;;5013019;28;20041;-72
2022/01/29 07:09:04;;;;;;;13.95;8.70;;;9.00;99.90;;;;;;5016103;28;20519;-73
2022/01/29 07:11:30;;;;;;;15.95;8.93;;;8.90;99.90;;;;;;5014370;28;20120;-72
2022/01/29 07:14:03;;;;;;;11.07;8.02;;;9.00;99.90;;;;;;5029792;28;20124;-72
2022/01/29 07:16:34;;;;;;;14.15;9.10;;;8.90;99.90;;;;;;5030928;28;20099;-72
2022/01/29 07:19:00;;;;;;;13.38;9.23;;;9.00;99.90;;;;;;5029979;28;20561;-73
2022/01/29 07:21:26;;;;;;;19.13;9.50;;;8.90;99.90;;;;;;5014332;28;20269;-74
2022/01/29 07:23:51;;;;;;;14.35;8.93;;;8.90;99.90;;;;;;5029628;28;20375;-72
2022/01/29 07:26:17;;;;;;;13.07;8.70;;;8.90;99.90;;;;;;5030645;28;20073;-78
2022/01/29 07:28:43;;;;;;;12.75;8.82;;;8.90;99.90;;;;;;5029735;28;20464;-72
2022/01/29 07:31:08;;;;;;;14.23;8.75;;;8.90;99.90;;;;;;5030315;28;20068;-73
2022/01/29 07:33:34;;;;;;;14.02;8.75;;;8.90;99.90;;;;;;5030240;28;20041;-73
2022/01/29 07:36:00;;;;;;;13.23;8.73;;;9.00;99.90;;;;;;5030763;28;20049;-74
2022/01/29 07:38:26;;;;;;;23.77;9.15;;;8.90;99.90;;;;;;5030645;28;20045;-73
2022/01/29 07:40:51;;;;;;;17.23;9.43;;;8.90;99.90;;;;;;5029038;28;20115;-73
2022/01/29 07:43:17;;;;;;;15.05;8.18;;;8.90;99.90;;;;;;5030659;28;20114;-74
2022/01/29 07:45:42;;;;;;;10.50;7.63;;;8.90;99.90;;;;;;5030063;28;20045;-74
2022/01/29 07:48:08;;;;;;;17.60;8.35;;;8.90;99.90;;;;;;5030172;28;20479;-74
2022/01/29 07:50:34;;;;;;;13.40;8.30;;;8.90;99.90;;;;;;5030151;28;20489;-74
2022/01/29 07:53:00;;;;;;;15.90;8.05;;;8.90;99.90;;;;;;5029752;28;20477;-74
2022/01/29 07:55:26;;;;;;;12.00;7.05;;;8.90;99.90;;;;;;5028427;28;20064;-73
2022/01/29 07:57:52;;;;;;;10.00;7.20;;;8.90;99.90;;;;;;5028952;28;20075;-78
2022/01/29 08:00:18;;;;;;;14.93;7.78;;;9.00;99.90;;;;;;5029598;28;20049;-77
2022/01/29 08:02:44;;;;;;;12.32;6.57;;;9.00;99.90;;;;;;5046607;28;20041;-74
2022/01/29 08:05:10;;;;;;;12.02;7.00;;;9.00;99.90;;;;;;5037934;28;20053;-73
2022/01/29 08:07:36;;;;;;;12.85;6.65;;;9.10;99.90;;;;;;5029448;28;20085;-73
2022/01/29 08:10:02;;;;;;;11.95;6.20;;;9.10;99.90;;;;;;5030838;28;20076;-73
2022/01/29 08:12:28;;;;;;;10.52;6.10;;;9.10;99.90;;;;;;5032101;28;20049;-76
2022/01/29 08:14:53;;;;;;;12.48;5.57;;;9.10;99.90;;;;;;5027854;28;20112;-78
2022/01/29 08:17:19;;;;;;;9.05;5.07;;;9.10;99.90;;;;;;5030507;28;20128;-71
2022/01/29 08:19:45;;;;;;;9.23;4.60;;;9.10;99.90;;;;;;5029116;28;20065;-72
2022/01/29 08:22:11;;;;;;;11.10;5.07;;;9.20;99.90;;;;;;5038357;28;20543;-71
2022/01/29 08:24:36;;;;;;;11.35;5.47;;;9.20;99.90;;;;;;5043856;28;20049;-72
2022/01/29 08:27:02;;;;;;;10.30;5.28;;;9.20;99.90;;;;;;5021049;28;20521;-71
2022/01/29 08:29:28;;;;;;;10.85;6.13;;;9.20;99.90;;;;;;5041499;28;20057;-71
2022/01/29 08:31:54;;;;;;;11.85;6.72;;;9.30;99.90;;;;;;5028326;28;20804;-78
2022/01/29 08:34:20;;;;;;;10.32;5.53;;;9.30;99.90;;;;;;5047839;28;20091;-71
2022/01/29 08:36:46;;;;;;;12.95;6.20;;;9.30;99.90;;;;;;5024325;28;20482;-70
2022/01/29 08:39:11;;;;;;;11.80;5.70;;;9.30;99.90;;;;;;5007502;28;20132;-72
2022/01/29 08:41:37;;;;;;;11.25;5.68;;;9.30;99.90;;;;;;5029226;28;20057;-71
2022/01/29 08:44:03;;;;;;;10.57;5.50;;;9.30;99.90;;;;;;5011763;28;20057;-71
2022/01/29 08:46:28;;;;;;;8.98;5.45;;;9.30;99.90;;;;;;5029100;28;20053;-71
2022/01/29 08:48:54;;;;;;;9.60;5.95;;;9.30;99.90;;;;;;5028855;28;20439;-71
2022/01/29 08:51:19;;;;;;;11.75;5.45;;;9.30;99.90;;;;;;5027850;28;20049;-75
2022/01/29 08:53:45;;;;;;;14.27;5.38;;;9.30;99.90;;;;;;5029181;28;20135;-71
2022/01/29 08:56:11;;;;;;;9.35;5.20;;;9.30;99.90;;;;;;5027270;28;20045;-70
2022/01/29 08:58:36;;;;;;;11.13;4.82;;;9.40;99.90;;;;;;5033705;28;20415;-71
2022/01/29 09:01:07;;;;;;;11.63;5.53;;;9.40;99.90;;;;;;5035402;28;20056;-74
2022/01/29 09:03:33;;;;;;;8.75;5.20;;;9.40;99.90;;;;;;5028935;28;20116;-72
2022/01/29 09:05:58;;;;;;;8.43;4.78;;;9.40;99.90;;;;;;5011855;28;20179;-72
2022/01/29 09:08:24;;;;;;;9.65;5.00;;;9.40;99.90;;;;;;5033533;28;20099;-71
2022/01/29 09:10:51;;;;;;;9.27;4.18;;;9.40;99.90;;;;;;5028275;28;20046;-71
2022/01/29 09:13:17;;;;;;;10.65;4.68;;;9.50;99.90;;;;;;5029494;28;20049;-72
2022/01/29 09:15:43;;;;;;;7.35;3.42;;;9.50;99.90;;;;;;5032862;28;20421;-71
2022/01/29 09:18:08;;;;;;;8.65;3.42;;;9.60;99.90;;;;;;5015265;28;20061;-71
2022/01/29 09:20:34;;;;;;;11.27;4.63;;;9.60;99.90;;;;;;5016191;28;20382;-70
2022/01/29 09:23:00;;;;;;;7.25;2.67;;;9.60;99.90;;;;;;5032947;28;20049;-71
2022/01/29 09:25:26;;;;;;;9.27;3.67;;;9.60;99.90;;;;;;5015736;28;20049;-70
2022/01/29 09:27:52;;;;;;;8.93;2.88;;;9.60;99.90;;;;;;5032472;28;20401;-71
2022/01/29 09:30:18;;;;;;;8.93;3.20;;;9.70;99.90;;;;;;5032817;28;20046;-71
2022/01/29 09:32:45;;;;;;;8.15;3.08;;;9.70;99.90;;;;;;5032494;28;20397;-71
2022/01/29 09:35:10;;;;;;;9.25;2.88;;;9.70;99.90;;;;;;5033031;28;20502;-71
2022/01/29 09:37:36;;;;;;;9.40;3.63;;;9.80;99.90;;;;;;5032830;28;20053;-71
2022/01/29 09:40:02;;;;;;;10.82;2.72;;;9.80;99.90;;;;;;5031594;28;20046;-71
2022/01/29 09:42:28;;;;;;;7.30;2.30;;;9.80;99.90;;;;;;5016549;28;20053;-70
2022/01/29 09:44:53;;;;;;;6.93;2.85;;;9.80;99.90;;;;;;5031841;28;20049;-70
2022/01/29 09:47:23;;;;;;;6.97;1.95;;;9.90;99.90;;;;;;5037309;28;20049;-71
2022/01/29 09:49:51;;;;;;;8.30;2.13;;;9.80;99.90;;;;;;5026629;28;20041;-70
2022/01/29 09:52:16;;;;;;;5.80;1.77;;;9.90;99.90;;;;;;5032779;28;20532;-71
2022/01/29 09:54:47;;;;;;;11.00;2.13;;;9.90;99.90;;;;;;5031544;28;20037;-71
2022/01/29 09:57:12;;;;;;;6.93;2.20;;;9.90;99.90;;;;;;5033175;28;20457;-71
2022/01/29 09:59:38;;;;;;;8.18;2.90;;;9.90;99.90;;;;;;5031386;28;20092;-71
2022/01/29 10:02:13;;;;;;;8.35;1.88;;;10.00;99.90;;;;;;5032235;28;20056;-70
2022/01/29 10:04:50;;;;;;;10.18;2.17;;;10.00;99.90;;;;;;5032181;28;20444;-70
2022/01/29 10:07:23;;;;;;;8.90;2.05;;;10.10;99.90;;;;;;5031882;28;20052;-71
2022/01/29 10:09:48;;;;;;;;;;;10.10;99.90;;;;;;5031723;28;20041;-70
2022/01/29 10:12:17;;;;;;;5.22;1.50;;;10.10;99.90;;;;;;5032744;28;19921;-70
2022/01/29 10:14:47;;;;;;;8.68;1.83;;;10.10;99.90;;;;;;5030963;28;20127;-70
2022/01/29 10:17:45;;;;;;;7.60;1.80;;;10.10;99.90;;;;;;5032495;28;20038;-71
2022/01/29 10:20:15;;;;;;;5.30;1.27;;;10.10;99.90;;;;;;5031971;28;20379;-70
2022/01/29 10:22:43;;;;;;;5.57;1.60;;;10.10;99.90;;;;;;5014845;28;20037;-71
2022/01/29 10:25:15;;;;;;;7.00;1.67;;;10.10;99.90;;;;;;5031302;28;20060;-71
2022/01/29 10:28:05;;;;;;;7.30;1.90;;;10.20;99.90;;;;;;5031474;28;20505;-71
2022/01/29 10:30:30;;;;;;;4.72;1.42;;;10.20;99.90;;;;;;5032117;28;20057;-69
2022/01/29 10:33:24;;;;;;;5.40;1.50;;;10.20;99.90;;;;;;5031443;28;20048;-70
2022/01/29 10:35:52;;;;;;;7.68;1.67;;;10.30;99.90;;;;;;5022970;28;20060;-70
2022/01/29 10:38:22;;;;;;;7.90;1.60;;;10.30;99.90;;;;;;5031689;28;20045;-70
2022/01/29 10:41:22;;;;;;;8.05;2.47;;;10.40;99.90;;;;;;5031308;28;20049;-70
2022/01/29 10:44:13;;;;;;;11.27;2.75;;;10.30;99.90;;;;;;5030277;28;20120;-70
2022/01/29 10:46:40;;;;;;;6.00;1.63;;;10.40;99.90;;;;;;5031574;28;20091;-69
2022/01/29 10:49:07;;;;;;;5.18;1.10;;;10.50;99.90;;;;;;5029561;28;20048;-70
2022/01/29 10:51:34;;;;;;;5.55;1.17;;;10.50;99.90;;;;;;5014908;28;20402;-73
2022/01/29 10:54:17;;;;;;;8.60;1.27;;;10.50;99.90;;;;;;5030546;28;20454;-70
2022/01/29 10:56:55;;;;;;;5.65;1.17;;;10.60;99.90;;;;;;5030689;28;20053;-76
2022/01/29 10:59:21;;;;;;;7.47;0.95;;;10.60;99.90;;;;;;5014552;28;20053;-68
2022/01/29 11:01:52;;;;;;;7.00;0.80;;;10.60;99.90;;;;;;5028698;28;20117;-72
2022/01/29 11:04:18;;;;;;;5.95;1.00;;;10.60;99.90;;;;;;5013428;28;20034;-77
2022/01/29 11:06:46;;;;;;;5.70;0.95;;;10.60;99.90;;;;;;5023503;28;20056;-71
2022/01/29 11:09:13;;;;;;;6.25;0.88;;;10.60;99.90;;;;;;5011821;28;20200;-71
2022/01/29 11:11:45;;;;;;;7.47;1.20;;;10.50;99.90;;;;;;5016223;28;20401;-71
2022/01/29 11:14:13;;;;;;;7.20;1.45;;;10.50;99.90;;;;;;5028712;28;20079;-70
2022/01/29 11:16:39;;;;;;;7.18;1.48;;;10.60;99.90;;;;;;5025962;28;20041;-70
2022/01/29 11:19:06;;;;;;;7.22;1.55;;;10.70;99.90;;;;;;5030147;28;20921;-69
2022/01/29 11:21:33;;;;;;;8.82;1.48;;;10.70;99.90;;;;;;5029952;28;20124;-70
2022/01/29 11:24:00;;;;;;;6.90;1.25;;;10.70;99.90;;;;;;5029631;28;20056;-71
2022/01/29 11:26:30;;;;;;;8.50;0.70;;;10.70;99.90;;;;;;5029697;28;20053;-71
2022/01/29 11:29:21;;;;;;;5.68;0.82;;;10.70;99.90;;;;;;5030293;28;20142;-70
2022/01/29 11:31:47;;;;;;;6.88;0.65;;;10.70;99.90;;;;;;5012717;28;20486;-71
2022/01/29 11:34:13;;;;;;;10.85;1.20;;;10.70;99.90;;;;;;5029936;28;20064;-70
2022/01/29 11:36:47;;;;;;;5.63;0.70;;;10.70;99.90;;;;;;5028448;28;20133;-70
2022/01/29 11:39:20;;;;;;;6.53;0.85;;;10.70;99.90;;;;;;5011446;28;20042;-70
2022/01/29 11:41:46;;;;;;;9.75;0.93;;;10.60;99.90;;;;;;5029172;28;20045;-72
2022/01/29 11:44:28;;;;;;;8.07;1.08;;;10.60;99.90;;;;;;5013232;28;20051;-70
2022/01/29 11:46:53;;;;;;;5.53;1.07;;;10.60;99.90;;;;;;5021472;28;20072;-70
2022/01/29 11:49:21;;;;;;;8.95;1.00;;;10.60;99.90;;;;;;5030395;28;20370;-70
2022/01/29 11:51:49;;;;;;;7.75;0.90;;;10.60;99.90;;;;;;5026126;28;20481;-70
2022/01/29 11:54:24;;;;;;;8.82;1.10;;;10.70;99.90;;;;;;5026094;28;20044;-71
2022/01/29 11:57:10;;;;;;;6.13;0.90;;;10.70;99.90;;;;;;5027553;28;20524;-71
2022/01/29 11:59:36;;;;;;;7.43;0.98;;;10.70;99.90;;;;;;5026471;28;20052;-78
2022/01/29 12:02:26;;;;;;;5.13;1.08;;;10.70;99.90;;;;;;5028042;28;20033;-71
2022/01/29 12:04:54;;;;;;;5.93;0.52;;;10.80;99.90;;;;;;5028127;28;20064;-70
2022/01/29 12:07:37;;;;;;;8.88;1.08;;;10.90;99.90;;;;;;5028257;28;20051;-70
2022/01/29 12:10:07;;;;;;;7.82;1.20;;;10.90;99.90;;;;;;5027810;28;20738;-70
2022/01/29 12:12:46;;;;;;;4.40;0.50;;;10.80;99.90;;;;;;5028034;28;20088;-70
2022/01/29 12:15:11;;;;;;;6.95;0.93;;;10.80;99.90;;;;;;5012477;28;20041;-70
2022/01/29 12:17:51;;;;;;;5.63;0.90;;;10.80;99.90;;;;;;5017663;28;20540;-73
2022/01/29 12:20:20;;;;;;;5.85;0.52;;;11.00;99.70;;;;;;5028985;28;20102;-70
2022/01/29 12:22:46;;;;;;;10.68;0.50;;;11.00;99.40;;;;;;5012852;28;20042;-70
2022/01/29 12:25:15;;;;;;;6.05;0.77;;;11.00;99.70;;;;;;5029867;28;20072;-70
2022/01/29 12:27:49;;;;;;;6.25;1.00;;;11.10;99.60;;;;;;5029048;28;20140;-71
2022/01/29 12:30:36;;;;;;;6.22;0.95;;;11.00;99.60;;;;;;5016723;28;20501;-70
2022/01/29 12:33:07;;;;;;;6.13;0.65;;;11.20;99.40;;;;;;5046888;28;20040;-72
2022/01/29 12:36:02;;;;;;;5.97;0.63;;;11.20;99.00;;;;;;5012461;28;20052;-71
2022/01/29 12:38:29;;;;;;;5.15;0.70;;;11.20;99.00;;;;;;5029446;28;20052;-70
2022/01/29 12:41:00;;;;;;;5.07;0.60;;;11.20;99.10;;;;;;5028716;28;20071;-70
2022/01/29 12:43:33;;;;;;;3.60;0.90;;;11.30;99.00;;;;;;5012387;28;20088;-70
2022/01/29 12:46:16;;;;;;;8.50;0.68;;;11.30;98.70;;;;;;5029121;28;20157;-70
2022/01/29 12:48:43;;;;;;;5.65;0.90;;;11.40;98.70;;;;;;5028453;28;20156;-70
2022/01/29 12:51:12;;;;;;;5.43;0.65;;;11.40;98.60;;;;;;5028733;28;20046;-70
2022/01/29 12:53:38;;;;;;;4.57;0.50;;;11.50;98.70;;;;;;5030769;28;20041;-70
2022/01/29 12:56:13;;;;;;;6.90;0.82;;;11.50;98.50;;;;;;5028484;28;20145;-70
2022/01/29 12:58:42;;;;;;;7.78;0.93;;;11.50;98.40;;;;;;5029576;28;20104;-69